Terminal Aerodrome Forecast
Issued by NWS

Home | Current Version | Previous Version | Text Only | Print | Product List | Glossary On
Versions: 1 2 3 4 5 6 7 8 9 10 11 12 13
000
FTUS42 TJSJ 031130
TAFJPS
TAF
TJPS 031130Z 0312/0412 VRB05KT P6SM VCSH FEW030 SCT060
     FM031500 14015KT P6SM FEW030 SCT060
     FM032330 09009KT P6SM FEW030 SCT060
      AMD NOT SKED TIL 040300=

USA.gov is the U.S. government's official web portal to all federal, state and local government web resources and services.